sensor_id;sensor_type;location;lat;lon;timestamp;temperature;humidity
24682;DHT22;12802;53.390;-2.328;2022-09-03T00:00:08;18.80;99.90
24682;DHT22;12802;53.390;-2.328;2022-09-03T00:02:39;18.80;99.90
24682;DHT22;12802;53.390;-2.328;2022-09-03T00:05:26;18.80;99.90
24682;DHT22;12802;53.390;-2.328;2022-09-03T00:08:11;18.80;99.90
24682;DHT22;12802;53.390;-2.328;2022-09-03T00:13:29;18.80;99.90
24682;DHT22;12802;53.390;-2.328;2022-09-03T00:15:59;18.80;99.90
24682;DHT22;12802;53.390;-2.328;2022-09-03T00:18:31;18.80;99.90
24682;DHT22;12802;53.390;-2.328;2022-09-03T00:21:09;18.80;99.90
24682;DHT22;12802;53.390;-2.328;2022-09-03T00:23:39;18.80;99.90
24682;DHT22;12802;53.390;-2.328;2022-09-03T00:28:41;18.80;99.90
24682;DHT22;12802;53.390;-2.328;2022-09-03T00:31:57;18.70;99.90
24682;DHT22;12802;53.390;-2.328;2022-09-03T00:36:48;18.70;99.90
24682;DHT22;12802;53.390;-2.328;2022-09-03T00:39:17;18.70;99.90
24682;DHT22;12802;53.390;-2.328;2022-09-03T00:47:46;18.70;99.90
24682;DHT22;12802;53.390;-2.328;2022-09-03T00:50:24;18.60;99.90
24682;DHT22;12802;53.390;-2.328;2022-09-03T00:52:58;18.60;99.90
24682;DHT22;12802;53.390;-2.328;2022-09-03T00:55:51;18.60;99.90
24682;DHT22;12802;53.390;-2.328;2022-09-03T01:00:49;18.60;99.90
24682;DHT22;12802;53.390;-2.328;2022-09-03T01:06:17;18.60;99.90
24682;DHT22;12802;53.390;-2.328;2022-09-03T01:14:14;18.60;99.90
24682;DHT22;12802;53.390;-2.328;2022-09-03T01:19:50;18.60;99.90
24682;DHT22;12802;53.390;-2.328;2022-09-03T01:26:29;18.50;99.90
24682;DHT22;12802;53.390;-2.328;2022-09-03T01:31:06;18.60;99.90
24682;DHT22;12802;53.390;-2.328;2022-09-03T01:39:20;18.60;99.90
24682;DHT22;12802;53.390;-2.328;2022-09-03T01:58:39;18.50;99.90
24682;DHT22;12802;53.390;-2.328;2022-09-03T02:01:32;18.60;99.90
24682;DHT22;12802;53.390;-2.328;2022-09-03T02:04:00;18.60;99.90
24682;DHT22;12802;53.390;-2.328;2022-09-03T02:06:27;18.60;99.90
24682;DHT22;12802;53.390;-2.328;2022-09-03T02:08:56;18.60;99.90
24682;DHT22;12802;53.390;-2.328;2022-09-03T02:11:22;18.50;99.90
24682;DHT22;12802;53.390;-2.328;2022-09-03T02:13:52;18.50;99.90
24682;DHT22;12802;53.390;-2.328;2022-09-03T02:16:22;18.50;99.90
24682;DHT22;12802;53.390;-2.328;2022-09-03T02:19:11;18.50;99.90
24682;DHT22;12802;53.390;-2.328;2022-09-03T02:21:41;18.50;99.90
24682;DHT22;12802;53.390;-2.328;2022-09-03T02:24:09;18.50;99.90
24682;DHT22;12802;53.390;-2.328;2022-09-03T02:26:35;18.50;99.90
24682;DHT22;12802;53.390;-2.328;2022-09-03T02:29:02;18.50;99.90
24682;DHT22;12802;53.390;-2.328;2022-09-03T02:31:28;18.50;99.90
24682;DHT22;12802;53.390;-2.328;2022-09-03T02:33:56;18.50;99.90
24682;DHT22;12802;53.390;-2.328;2022-09-03T02:36:29;18.50;99.90
24682;DHT22;12802;53.390;-2.328;2022-09-03T02:38:56;18.50;99.90
24682;DHT22;12802;53.390;-2.328;2022-09-03T02:41:22;18.50;99.90
24682;DHT22;12802;53.390;-2.328;2022-09-03T02:46:53;18.50;99.90
24682;DHT22;12802;53.390;-2.328;2022-09-03T02:49:17;18.50;99.90
24682;DHT22;12802;53.390;-2.328;2022-09-03T02:51:44;18.40;99.90
24682;DHT22;12802;53.390;-2.328;2022-09-03T02:54:11;18.40;99.90
24682;DHT22;12802;53.390;-2.328;2022-09-03T02:56:37;18.40;99.90
24682;DHT22;12802;53.390;-2.328;2022-09-03T02:59:05;18.40;99.90
24682;DHT22;12802;53.390;-2.328;2022-09-03T03:01:31;18.40;99.90
24682;DHT22;12802;53.390;-2.328;2022-09-03T03:03:58;18.40;99.90
24682;DHT22;12802;53.390;-2.328;2022-09-03T03:06:24;18.40;99.90
24682;DHT22;12802;53.390;-2.328;2022-09-03T03:08:50;18.40;99.90
24682;DHT22;12802;53.390;-2.328;2022-09-03T03:11:18;18.40;99.90
24682;DHT22;12802;53.390;-2.328;2022-09-03T03:13:45;18.40;99.90
24682;DHT22;12802;53.390;-2.328;2022-09-03T03:16:12;18.40;99.90
24682;DHT22;12802;53.390;-2.328;2022-09-03T03:18:38;18.40;99.90
24682;DHT22;12802;53.390;-2.328;2022-09-03T03:21:09;18.40;99.90
24682;DHT22;12802;53.390;-2.328;2022-09-03T03:23:36;18.40;99.90
24682;DHT22;12802;53.390;-2.328;2022-09-03T03:26:07;18.50;99.90
24682;DHT22;12802;53.390;-2.328;2022-09-03T03:28:34;18.40;99.90
24682;DHT22;12802;53.390;-2.328;2022-09-03T03:31:11;18.40;99.90
24682;DHT22;12802;53.390;-2.328;2022-09-03T03:33:38;18.40;99.90
24682;DHT22;12802;53.390;-2.328;2022-09-03T03:36:09;18.40;99.90
24682;DHT22;12802;53.390;-2.328;2022-09-03T03:38:36;18.50;99.90
24682;DHT22;12802;53.390;-2.328;2022-09-03T03:41:18;18.40;99.90
24682;DHT22;12802;53.390;-2.328;2022-09-03T03:43:46;18.30;99.90
24682;DHT22;12802;53.390;-2.328;2022-09-03T03:46:12;18.30;99.90
24682;DHT22;12802;53.390;-2.328;2022-09-03T03:48:39;18.30;99.90
24682;DHT22;12802;53.390;-2.328;2022-09-03T03:51:07;18.30;99.90
24682;DHT22;12802;53.390;-2.328;2022-09-03T03:53:35;18.20;99.90
24682;DHT22;12802;53.390;-2.328;2022-09-03T03:56:04;18.20;99.90
24682;DHT22;12802;53.390;-2.328;2022-09-03T03:58:32;18.20;99.90
24682;DHT22;12802;53.390;-2.328;2022-09-03T04:01:06;18.20;99.90
24682;DHT22;12802;53.390;-2.328;2022-09-03T04:03:32;18.20;99.90
24682;DHT22;12802;53.390;-2.328;2022-09-03T04:05:59;18.20;99.90
24682;DHT22;12802;53.390;-2.328;2022-09-03T04:08:26;18.20;99.90
24682;DHT22;12802;53.390;-2.328;2022-09-03T04:10:52;18.10;99.90
24682;DHT22;12802;53.390;-2.328;2022-09-03T04:13:18;18.10;99.90
24682;DHT22;12802;53.390;-2.328;2022-09-03T04:15:44;18.00;99.90
24682;DHT22;12802;53.390;-2.328;2022-09-03T04:18:10;18.00;99.90
24682;DHT22;12802;53.390;-2.328;2022-09-03T04:20:36;18.00;99.90
24682;DHT22;12802;53.390;-2.328;2022-09-03T04:23:03;17.90;99.90
24682;DHT22;12802;53.390;-2.328;2022-09-03T04:25:29;17.90;99.90
24682;DHT22;12802;53.390;-2.328;2022-09-03T04:27:56;17.90;99.90
24682;DHT22;12802;53.390;-2.328;2022-09-03T04:30:22;17.90;99.90
24682;DHT22;12802;53.390;-2.328;2022-09-03T04:32:51;17.90;99.90
24682;DHT22;12802;53.390;-2.328;2022-09-03T04:35:26;17.80;99.90
24682;DHT22;12802;53.390;-2.328;2022-09-03T04:37:54;17.80;99.90
24682;DHT22;12802;53.390;-2.328;2022-09-03T04:40:20;17.80;99.90
24682;DHT22;12802;53.390;-2.328;2022-09-03T04:42:46;17.80;99.90
24682;DHT22;12802;53.390;-2.328;2022-09-03T04:45:12;17.80;99.90
24682;DHT22;12802;53.390;-2.328;2022-09-03T04:47:44;17.80;99.90
24682;DHT22;12802;53.390;-2.328;2022-09-03T04:50:12;17.90;99.90
24682;DHT22;12802;53.390;-2.328;2022-09-03T04:52:37;17.90;99.90
24682;DHT22;12802;53.390;-2.328;2022-09-03T04:55:04;17.90;99.90
24682;DHT22;12802;53.390;-2.328;2022-09-03T04:57:30;17.90;99.90
24682;DHT22;12802;53.390;-2.328;2022-09-03T05:00:00;17.90;99.90
24682;DHT22;12802;53.390;-2.328;2022-09-03T05:02:25;18.00;99.90
24682;DHT22;12802;53.390;-2.328;2022-09-03T05:04:51;17.90;99.90
24682;DHT22;12802;53.390;-2.328;2022-09-03T05:07:18;17.90;99.90
24682;DHT22;12802;53.390;-2.328;2022-09-03T05:09:45;17.90;99.90
24682;DHT22;12802;53.390;-2.328;2022-09-03T05:12:11;17.90;99.90
24682;DHT22;12802;53.390;-2.328;2022-09-03T05:14:37;17.90;99.90
24682;DHT22;12802;53.390;-2.328;2022-09-03T05:17:03;17.90;99.90
24682;DHT22;12802;53.390;-2.328;2022-09-03T05:19:29;18.00;99.90
24682;DHT22;12802;53.390;-2.328;2022-09-03T05:21:56;17.90;99.90
24682;DHT22;12802;53.390;-2.328;2022-09-03T05:24:21;18.00;99.90
24682;DHT22;12802;53.390;-2.328;2022-09-03T05:26:47;18.00;99.90
24682;DHT22;12802;53.390;-2.328;2022-09-03T05:29:13;18.00;99.90
24682;DHT22;12802;53.390;-2.328;2022-09-03T05:31:40;17.90;99.90
24682;DHT22;12802;53.390;-2.328;2022-09-03T05:34:07;17.90;99.90
24682;DHT22;12802;53.390;-2.328;2022-09-03T05:36:35;17.90;99.90
24682;DHT22;12802;53.390;-2.328;2022-09-03T05:39:01;17.90;99.90
24682;DHT22;12802;53.390;-2.328;2022-09-03T05:41:28;17.90;99.90
24682;DHT22;12802;53.390;-2.328;2022-09-03T05:43:55;17.90;99.90
24682;DHT22;12802;53.390;-2.328;2022-09-03T05:46:24;17.90;99.90
24682;DHT22;12802;53.390;-2.328;2022-09-03T05:49:04;17.90;99.90
24682;DHT22;12802;53.390;-2.328;2022-09-03T05:51:32;17.90;99.90
24682;DHT22;12802;53.390;-2.328;2022-09-03T05:53:58;17.90;99.90
24682;DHT22;12802;53.390;-2.328;2022-09-03T05:56:26;17.90;99.90
24682;DHT22;12802;53.390;-2.328;2022-09-03T05:58:55;17.90;99.90
24682;DHT22;12802;53.390;-2.328;2022-09-03T06:01:22;17.90;99.90
24682;DHT22;12802;53.390;-2.328;2022-09-03T06:04:00;17.90;99.90
24682;DHT22;12802;53.390;-2.328;2022-09-03T06:06:27;17.90;99.90
24682;DHT22;12802;53.390;-2.328;2022-09-03T06:08:55;17.90;99.90
24682;DHT22;12802;53.390;-2.328;2022-09-03T06:11:23;18.00;99.90
24682;DHT22;12802;53.390;-2.328;2022-09-03T06:13:51;17.90;99.90
24682;DHT22;12802;53.390;-2.328;2022-09-03T06:16:17;17.90;99.90
24682;DHT22;12802;53.390;-2.328;2022-09-03T06:18:43;17.90;99.90
24682;DHT22;12802;53.390;-2.328;2022-09-03T06:21:08;17.90;99.90
24682;DHT22;12802;53.390;-2.328;2022-09-03T06:23:34;17.90;99.90
24682;DHT22;12802;53.390;-2.328;2022-09-03T06:26:09;17.90;99.90
24682;DHT22;12802;53.390;-2.328;2022-09-03T06:28:36;17.90;99.90
24682;DHT22;12802;53.390;-2.328;2022-09-03T06:31:04;17.90;99.90
24682;DHT22;12802;53.390;-2.328;2022-09-03T06:33:31;17.90;99.90
24682;DHT22;12802;53.390;-2.328;2022-09-03T06:35:59;17.90;99.90
24682;DHT22;12802;53.390;-2.328;2022-09-03T06:38:27;18.00;99.90
24682;DHT22;12802;53.390;-2.328;2022-09-03T06:40:55;18.00;99.90
24682;DHT22;12802;53.390;-2.328;2022-09-03T06:43:22;18.00;99.90
24682;DHT22;12802;53.390;-2.328;2022-09-03T06:46:02;18.00;99.90
24682;DHT22;12802;53.390;-2.328;2022-09-03T06:48:31;18.00;99.90
24682;DHT22;12802;53.390;-2.328;2022-09-03T06:50:59;18.10;99.90
24682;DHT22;12802;53.390;-2.328;2022-09-03T06:53:27;18.00;99.90
24682;DHT22;12802;53.390;-2.328;2022-09-03T06:55:59;18.10;99.90
24682;DHT22;12802;53.390;-2.328;2022-09-03T06:58:40;18.10;99.90
24682;DHT22;12802;53.390;-2.328;2022-09-03T07:01:13;18.10;99.90
24682;DHT22;12802;53.390;-2.328;2022-09-03T07:03:41;18.10;99.90
24682;DHT22;12802;53.390;-2.328;2022-09-03T07:06:09;18.20;99.90
24682;DHT22;12802;53.390;-2.328;2022-09-03T07:08:35;18.20;99.90
24682;DHT22;12802;53.390;-2.328;2022-09-03T07:11:10;18.20;99.90
24682;DHT22;12802;53.390;-2.328;2022-09-03T07:13:42;18.20;99.90
24682;DHT22;12802;53.390;-2.328;2022-09-03T07:16:11;18.30;99.90
24682;DHT22;12802;53.390;-2.328;2022-09-03T07:18:38;18.20;99.90
24682;DHT22;12802;53.390;-2.328;2022-09-03T07:21:09;18.30;99.90
24682;DHT22;12802;53.390;-2.328;2022-09-03T07:23:36;18.30;99.90
24682;DHT22;12802;53.390;-2.328;2022-09-03T07:26:05;18.30;99.90
24682;DHT22;12802;53.390;-2.328;2022-09-03T07:28:35;18.40;99.90
24682;DHT22;12802;53.390;-2.328;2022-09-03T07:33:30;18.50;99.90
24682;DHT22;12802;53.390;-2.328;2022-09-03T07:36:02;18.50;99.90
24682;DHT22;12802;53.390;-2.328;2022-09-03T07:38:28;18.50;99.90
24682;DHT22;12802;53.390;-2.328;2022-09-03T07:40:58;18.50;99.90
24682;DHT22;12802;53.390;-2.328;2022-09-03T07:43:29;18.60;99.90
24682;DHT22;12802;53.390;-2.328;2022-09-03T07:45:56;18.60;99.90
24682;DHT22;12802;53.390;-2.328;2022-09-03T07:48:23;18.60;99.90
24682;DHT22;12802;53.390;-2.328;2022-09-03T07:50:49;18.60;99.90
24682;DHT22;12802;53.390;-2.328;2022-09-03T07:53:15;18.60;99.90
24682;DHT22;12802;53.390;-2.328;2022-09-03T07:55:42;18.60;99.90
24682;DHT22;12802;53.390;-2.328;2022-09-03T07:58:09;18.60;99.90
24682;DHT22;12802;53.390;-2.328;2022-09-03T08:00:37;18.60;99.90
24682;DHT22;12802;53.390;-2.328;2022-09-03T08:03:03;18.60;99.90
24682;DHT22;12802;53.390;-2.328;2022-09-03T08:05:34;18.60;99.90
24682;DHT22;12802;53.390;-2.328;2022-09-03T08:08:04;18.60;99.90
24682;DHT22;12802;53.390;-2.328;2022-09-03T08:10:34;18.60;99.90
24682;DHT22;12802;53.390;-2.328;2022-09-03T08:13:00;18.60;99.90
24682;DHT22;12802;53.390;-2.328;2022-09-03T08:15:30;18.60;99.90
24682;DHT22;12802;53.390;-2.328;2022-09-03T08:17:55;18.70;99.90
24682;DHT22;12802;53.390;-2.328;2022-09-03T08:20:21;18.70;99.90
24682;DHT22;12802;53.390;-2.328;2022-09-03T08:22:47;18.80;99.90
24682;DHT22;12802;53.390;-2.328;2022-09-03T08:25:14;18.80;99.90
24682;DHT22;12802;53.390;-2.328;2022-09-03T08:27:39;18.90;99.90
24682;DHT22;12802;53.390;-2.328;2022-09-03T08:30:06;19.00;99.90
24682;DHT22;12802;53.390;-2.328;2022-09-03T08:32:39;19.00;99.90
24682;DHT22;12802;53.390;-2.328;2022-09-03T08:35:06;19.00;99.90
24682;DHT22;12802;53.390;-2.328;2022-09-03T08:37:34;19.10;99.90
24682;DHT22;12802;53.390;-2.328;2022-09-03T08:40:00;19.10;99.90
24682;DHT22;12802;53.390;-2.328;2022-09-03T08:42:57;19.20;99.90
24682;DHT22;12802;53.390;-2.328;2022-09-03T08:45:31;19.30;99.90
24682;DHT22;12802;53.390;-2.328;2022-09-03T08:48:15;19.40;99.90
24682;DHT22;12802;53.390;-2.328;2022-09-03T08:50:44;19.50;99.90
24682;DHT22;12802;53.390;-2.328;2022-09-03T08:53:50;19.60;99.90
24682;DHT22;12802;53.390;-2.328;2022-09-03T08:56:12;19.70;99.90
24682;DHT22;12802;53.390;-2.328;2022-09-03T08:58:39;19.90;99.90
24682;DHT22;12802;53.390;-2.328;2022-09-03T09:12:03;20.00;99.90
24682;DHT22;12802;53.390;-2.328;2022-09-03T09:14:42;20.10;99.90
24682;DHT22;12802;53.390;-2.328;2022-09-03T09:22:41;20.40;99.90
24682;DHT22;12802;53.390;-2.328;2022-09-03T09:25:21;20.70;99.90
24682;DHT22;12802;53.390;-2.328;2022-09-03T09:27:53;20.70;99.90
24682;DHT22;12802;53.390;-2.328;2022-09-03T09:30:22;20.70;99.90
24682;DHT22;12802;53.390;-2.328;2022-09-03T09:32:48;20.60;99.90
24682;DHT22;12802;53.390;-2.328;2022-09-03T09:35:14;20.60;99.90
24682;DHT22;12802;53.390;-2.328;2022-09-03T09:37:56;20.60;99.90
24682;DHT22;12802;53.390;-2.328;2022-09-03T09:40:25;20.60;99.90
24682;DHT22;12802;53.390;-2.328;2022-09-03T09:43:01;20.60;99.90
24682;DHT22;12802;53.390;-2.328;2022-09-03T09:45:28;20.60;99.90
24682;DHT22;12802;53.390;-2.328;2022-09-03T09:47:55;20.60;99.90
24682;DHT22;12802;53.390;-2.328;2022-09-03T09:50:21;20.60;99.90
24682;DHT22;12802;53.390;-2.328;2022-09-03T09:52:47;20.60;99.90
24682;DHT22;12802;53.390;-2.328;2022-09-03T09:55:24;20.60;99.90
24682;DHT22;12802;53.390;-2.328;2022-09-03T09:58:04;20.60;99.90
24682;DHT22;12802;53.390;-2.328;2022-09-03T10:00:30;20.60;99.90
24682;DHT22;12802;53.390;-2.328;2022-09-03T10:02:59;20.70;99.90
24682;DHT22;12802;53.390;-2.328;2022-09-03T10:05:30;20.80;99.90
24682;DHT22;12802;53.390;-2.328;2022-09-03T10:08:18;21.00;99.90
24682;DHT22;12802;53.390;-2.328;2022-09-03T10:10:49;21.20;99.90
24682;DHT22;12802;53.390;-2.328;2022-09-03T10:16:02;21.40;99.90
24682;DHT22;12802;53.390;-2.328;2022-09-03T10:18:42;21.50;99.90
24682;DHT22;12802;53.390;-2.328;2022-09-03T10:21:17;21.50;99.90
24682;DHT22;12802;53.390;-2.328;2022-09-03T10:26:22;21.50;99.90
24682;DHT22;12802;53.390;-2.328;2022-09-03T10:28:57;21.50;99.90
24682;DHT22;12802;53.390;-2.328;2022-09-03T10:31:30;21.40;99.90
24682;DHT22;12802;53.390;-2.328;2022-09-03T10:34:17;21.30;99.90
24682;DHT22;12802;53.390;-2.328;2022-09-03T10:37:00;21.30;99.90
24682;DHT22;12802;53.390;-2.328;2022-09-03T10:50:54;21.30;99.90
24682;DHT22;12802;53.390;-2.328;2022-09-03T10:56:50;21.40;99.90
24682;DHT22;12802;53.390;-2.328;2022-09-03T11:14:01;21.80;99.90
24682;DHT22;12802;53.390;-2.328;2022-09-03T11:16:05;21.70;99.90
24682;DHT22;12802;53.390;-2.328;2022-09-03T11:18:39;21.70;99.90
24682;DHT22;12802;53.390;-2.328;2022-09-03T11:21:09;21.60;99.90
24682;DHT22;12802;53.390;-2.328;2022-09-03T11:23:41;21.70;99.90
24682;DHT22;12802;53.390;-2.328;2022-09-03T11:26:10;21.70;99.90
24682;DHT22;12802;53.390;-2.328;2022-09-03T11:34:11;21.80;99.90
24682;DHT22;12802;53.390;-2.328;2022-09-03T11:36:41;21.80;99.90
24682;DHT22;12802;53.390;-2.328;2022-09-03T11:39:17;21.70;99.90
24682;DHT22;12802;53.390;-2.328;2022-09-03T11:41:56;21.60;99.90
24682;DHT22;12802;53.390;-2.328;2022-09-03T11:44:22;21.60;99.90
24682;DHT22;12802;53.390;-2.328;2022-09-03T11:46:56;21.60;99.90
24682;DHT22;12802;53.390;-2.328;2022-09-03T11:49:30;21.70;99.90
24682;DHT22;12802;53.390;-2.328;2022-09-03T11:52:02;21.70;99.90
24682;DHT22;12802;53.390;-2.328;2022-09-03T11:54:31;21.80;99.90
24682;DHT22;12802;53.390;-2.328;2022-09-03T11:57:27;21.90;99.90
24682;DHT22;12802;53.390;-2.328;2022-09-03T12:00:05;22.00;99.90
24682;DHT22;12802;53.390;-2.328;2022-09-03T12:02:35;22.10;99.90
24682;DHT22;12802;53.390;-2.328;2022-09-03T12:08:05;22.30;99.90
24682;DHT22;12802;53.390;-2.328;2022-09-03T12:13:41;22.20;99.90
24682;DHT22;12802;53.390;-2.328;2022-09-03T12:16:44;22.20;99.90
24682;DHT22;12802;53.390;-2.328;2022-09-03T12:19:44;22.10;99.90
24682;DHT22;12802;53.390;-2.328;2022-09-03T12:22:16;22.00;99.90
24682;DHT22;12802;53.390;-2.328;2022-09-03T12:24:42;22.10;99.90
24682;DHT22;12802;53.390;-2.328;2022-09-03T12:27:22;22.10;99.90
24682;DHT22;12802;53.390;-2.328;2022-09-03T12:29:57;22.10;99.90
24682;DHT22;12802;53.390;-2.328;2022-09-03T12:32:32;22.00;99.90
24682;DHT22;12802;53.390;-2.328;2022-09-03T12:35:30;22.00;99.90
24682;DHT22;12802;53.390;-2.328;2022-09-03T12:37:56;22.00;99.90
24682;DHT22;12802;53.390;-2.328;2022-09-03T12:40:25;22.00;99.90
24682;DHT22;12802;53.390;-2.328;2022-09-03T12:42:52;21.90;99.90
24682;DHT22;12802;53.390;-2.328;2022-09-03T12:45:25;21.90;99.90
24682;DHT22;12802;53.390;-2.328;2022-09-03T12:47:52;21.80;99.90
24682;DHT22;12802;53.390;-2.328;2022-09-03T12:50:21;21.80;99.90
24682;DHT22;12802;53.390;-2.328;2022-09-03T12:52:51;21.80;99.90
24682;DHT22;12802;53.390;-2.328;2022-09-03T12:57:53;21.80;99.90
24682;DHT22;12802;53.390;-2.328;2022-09-03T13:00:20;21.80;99.90
24682;DHT22;12802;53.390;-2.328;2022-09-03T13:02:52;21.90;99.90
24682;DHT22;12802;53.390;-2.328;2022-09-03T13:05:35;21.90;99.90
24682;DHT22;12802;53.390;-2.328;2022-09-03T13:08:05;21.90;99.90
24682;DHT22;12802;53.390;-2.328;2022-09-03T13:10:38;21.90;99.90
24682;DHT22;12802;53.390;-2.328;2022-09-03T13:13:27;21.80;99.90
24682;DHT22;12802;53.390;-2.328;2022-09-03T13:24:57;22.00;99.90
24682;DHT22;12802;53.390;-2.328;2022-09-03T13:30:20;22.10;99.90
24682;DHT22;12802;53.390;-2.328;2022-09-03T13:35:48;22.20;99.90
24682;DHT22;12802;53.390;-2.328;2022-09-03T13:44:33;22.10;99.90
24682;DHT22;12802;53.390;-2.328;2022-09-03T13:55:26;22.30;99.90
24682;DHT22;12802;53.390;-2.328;2022-09-03T14:00:41;22.30;99.90
24682;DHT22;12802;53.390;-2.328;2022-09-03T14:16:18;22.50;99.90
24682;DHT22;12802;53.390;-2.328;2022-09-03T14:18:58;22.40;99.90
24682;DHT22;12802;53.390;-2.328;2022-09-03T14:21:49;22.50;99.90
24682;DHT22;12802;53.390;-2.328;2022-09-03T14:24:25;22.50;99.90
24682;DHT22;12802;53.390;-2.328;2022-09-03T14:26:58;22.50;99.90
24682;DHT22;12802;53.390;-2.328;2022-09-03T14:29:29;22.50;99.90
24682;DHT22;12802;53.390;-2.328;2022-09-03T14:39:54;22.40;99.90
24682;DHT22;12802;53.390;-2.328;2022-09-03T15:10:42;22.20;99.90
24682;DHT22;12802;53.390;-2.328;2022-09-03T15:13:15;22.20;99.90
24682;DHT22;12802;53.390;-2.328;2022-09-03T15:18:24;22.10;99.90
24682;DHT22;12802;53.390;-2.328;2022-09-03T15:20:52;22.10;99.90
24682;DHT22;12802;53.390;-2.328;2022-09-03T15:29:25;22.00;99.90
24682;DHT22;12802;53.390;-2.328;2022-09-03T15:32:11;21.90;99.90
24682;DHT22;12802;53.390;-2.328;2022-09-03T15:37:20;21.80;99.90
24682;DHT22;12802;53.390;-2.328;2022-09-03T15:40:07;21.90;99.90
24682;DHT22;12802;53.390;-2.328;2022-09-03T15:42:35;21.80;99.90
24682;DHT22;12802;53.390;-2.328;2022-09-03T15:53:50;21.80;99.90
24682;DHT22;12802;53.390;-2.328;2022-09-03T16:02:03;21.70;99.90
24682;DHT22;12802;53.390;-2.328;2022-09-03T16:04:47;21.70;99.90
24682;DHT22;12802;53.390;-2.328;2022-09-03T16:15:29;21.60;99.90
24682;DHT22;12802;53.390;-2.328;2022-09-03T16:20:53;21.50;99.90
24682;DHT22;12802;53.390;-2.328;2022-09-03T16:29:14;21.30;99.90
24682;DHT22;12802;53.390;-2.328;2022-09-03T16:37:43;21.30;99.90
24682;DHT22;12802;53.390;-2.328;2022-09-03T16:40:48;21.30;99.90
24682;DHT22;12802;53.390;-2.328;2022-09-03T16:52:13;21.30;99.90
24682;DHT22;12802;53.390;-2.328;2022-09-03T17:00:05;21.30;99.90
24682;DHT22;12802;53.390;-2.328;2022-09-03T17:10:45;21.40;99.90
24682;DHT22;12802;53.390;-2.328;2022-09-03T17:18:52;21.20;99.90
24682;DHT22;12802;53.390;-2.328;2022-09-03T17:21:38;21.20;99.90
24682;DHT22;12802;53.390;-2.328;2022-09-03T17:30:06;21.20;99.90
24682;DHT22;12802;53.390;-2.328;2022-09-03T17:35:53;21.10;99.90
24682;DHT22;12802;53.390;-2.328;2022-09-03T17:38:38;21.10;99.90
24682;DHT22;12802;53.390;-2.328;2022-09-03T17:49:57;21.00;99.90
24682;DHT22;12802;53.390;-2.328;2022-09-03T17:55:31;20.90;99.90
24682;DHT22;12802;53.390;-2.328;2022-09-03T18:00:43;20.90;99.90
24682;DHT22;12802;53.390;-2.328;2022-09-03T18:05:46;20.80;99.90
24682;DHT22;12802;53.390;-2.328;2022-09-03T18:08:21;20.80;99.90
24682;DHT22;12802;53.390;-2.328;2022-09-03T18:11:06;20.80;99.90
24682;DHT22;12802;53.390;-2.328;2022-09-03T18:16:44;20.70;99.90
24682;DHT22;12802;53.390;-2.328;2022-09-03T18:19:42;20.70;99.90
24682;DHT22;12802;53.390;-2.328;2022-09-03T18:22:39;20.70;99.90
24682;DHT22;12802;53.390;-2.328;2022-09-03T18:25:28;20.70;99.90
24682;DHT22;12802;53.390;-2.328;2022-09-03T18:28:17;20.60;99.90
24682;DHT22;12802;53.390;-2.328;2022-09-03T18:31:02;20.60;99.90
24682;DHT22;12802;53.390;-2.328;2022-09-03T18:33:47;20.50;99.90
24682;DHT22;12802;53.390;-2.328;2022-09-03T18:36:31;20.50;99.90
24682;DHT22;12802;53.390;-2.328;2022-09-03T18:39:26;20.50;99.90
24682;DHT22;12802;53.390;-2.328;2022-09-03T18:45:52;20.40;99.90
24682;DHT22;12802;53.390;-2.328;2022-09-03T18:55:10;20.30;99.90
24682;DHT22;12802;53.390;-2.328;2022-09-03T19:13:34;20.20;99.90
24682;DHT22;12802;53.390;-2.328;2022-09-03T19:19:34;20.10;99.90
24682;DHT22;12802;53.390;-2.328;2022-09-03T19:22:33;20.10;99.90
24682;DHT22;12802;53.390;-2.328;2022-09-03T19:25:18;20.10;99.90
24682;DHT22;12802;53.390;-2.328;2022-09-03T19:28:14;20.00;99.90
24682;DHT22;12802;53.390;-2.328;2022-09-03T19:37:16;20.00;99.90
24682;DHT22;12802;53.390;-2.328;2022-09-03T19:40:32;20.00;99.90
24682;DHT22;12802;53.390;-2.328;2022-09-03T19:52:31;19.80;99.90
24682;DHT22;12802;53.390;-2.328;2022-09-03T19:55:26;19.80;99.90
24682;DHT22;12802;53.390;-2.328;2022-09-03T19:58:17;19.80;99.90
24682;DHT22;12802;53.390;-2.328;2022-09-03T20:01:02;19.80;99.90
24682;DHT22;12802;53.390;-2.328;2022-09-03T20:03:47;19.80;99.90
24682;DHT22;12802;53.390;-2.328;2022-09-03T20:06:33;19.70;99.90
24682;DHT22;12802;53.390;-2.328;2022-09-03T20:09:22;19.70;99.90
24682;DHT22;12802;53.390;-2.328;2022-09-03T20:12:12;19.70;99.90
24682;DHT22;12802;53.390;-2.328;2022-09-03T20:14:40;19.70;99.90
24682;DHT22;12802;53.390;-2.328;2022-09-03T20:22:38;19.60;99.90
24682;DHT22;12802;53.390;-2.328;2022-09-03T20:31:22;19.50;99.90
24682;DHT22;12802;53.390;-2.328;2022-09-03T20:45:10;19.40;99.90
24682;DHT22;12802;53.390;-2.328;2022-09-03T20:47:46;19.40;99.90
24682;DHT22;12802;53.390;-2.328;2022-09-03T20:53:12;19.40;99.90
24682;DHT22;12802;53.390;-2.328;2022-09-03T20:55:42;19.40;99.90
24682;DHT22;12802;53.390;-2.328;2022-09-03T21:01:07;19.30;99.90
24682;DHT22;12802;53.390;-2.328;2022-09-03T21:03:39;19.40;99.90
24682;DHT22;12802;53.390;-2.328;2022-09-03T21:06:35;19.30;99.90
24682;DHT22;12802;53.390;-2.328;2022-09-03T21:14:50;19.30;99.90
24682;DHT22;12802;53.390;-2.328;2022-09-03T21:25:20;19.20;99.90
24682;DHT22;12802;53.390;-2.328;2022-09-03T21:27:59;19.10;99.90
24682;DHT22;12802;53.390;-2.328;2022-09-03T21:30:27;19.10;99.90
24682;DHT22;12802;53.390;-2.328;2022-09-03T21:33:34;19.00;99.90
24682;DHT22;12802;53.390;-2.328;2022-09-03T21:36:22;19.00;99.90
24682;DHT22;12802;53.390;-2.328;2022-09-03T21:38:57;19.00;99.90
24682;DHT22;12802;53.390;-2.328;2022-09-03T21:41:31;19.00;99.90
24682;DHT22;12802;53.390;-2.328;2022-09-03T21:47:13;19.00;99.90
24682;DHT22;12802;53.390;-2.328;2022-09-03T21:52:28;18.90;99.90
24682;DHT22;12802;53.390;-2.328;2022-09-03T21:54:56;18.90;99.90
24682;DHT22;12802;53.390;-2.328;2022-09-03T21:57:39;18.90;99.90
24682;DHT22;12802;53.390;-2.328;2022-09-03T22:00:18;18.80;99.90
24682;DHT22;12802;53.390;-2.328;2022-09-03T22:02:46;18.80;99.90
24682;DHT22;12802;53.390;-2.328;2022-09-03T22:05:14;18.90;99.90
24682;DHT22;12802;53.390;-2.328;2022-09-03T22:10:33;18.90;99.90
24682;DHT22;12802;53.390;-2.328;2022-09-03T22:18:44;18.80;99.90
24682;DHT22;12802;53.390;-2.328;2022-09-03T22:21:18;18.80;99.90
24682;DHT22;12802;53.390;-2.328;2022-09-03T22:26:56;18.70;99.90
24682;DHT22;12802;53.390;-2.328;2022-09-03T22:35:16;18.70;99.90
24682;DHT22;12802;53.390;-2.328;2022-09-03T22:49:41;18.50;99.90
24682;DHT22;12802;53.390;-2.328;2022-09-03T22:52:17;18.50;99.90
24682;DHT22;12802;53.390;-2.328;2022-09-03T22:57:15;18.40;99.90
24682;DHT22;12802;53.390;-2.328;2022-09-03T22:59:58;18.40;99.90
24682;DHT22;12802;53.390;-2.328;2022-09-03T23:02:29;18.40;99.90
24682;DHT22;12802;53.390;-2.328;2022-09-03T23:05:07;18.40;99.90
24682;DHT22;12802;53.390;-2.328;2022-09-03T23:10:15;18.40;99.90